Time;durP1;ratioP1;P1;durP2;ratioP2;P2;SDS_P1;SDS_P2;PMS_P1;PMS_P2;Temp;Humidity;BMP_temperature;BMP_pressure;BME280_temperature;BME280_humidity;BME280_pressure;Samples;Min_cycle;Max_cycle;Signal;HPM_P1;HPM_P2
2023/03/17 00:01:18;;;;;;;6.47;3.17;;;7.00;99.90;;;;;;5037386;28;20521;-62
2023/03/17 00:03:45;;;;;;;5.20;3.28;;;7.00;99.90;;;;;;5037200;28;20055;-62
2023/03/17 00:06:20;;;;;;;5.63;3.33;;;7.00;99.90;;;;;;5036962;28;20040;-62
2023/03/17 00:08:46;;;;;;;6.55;3.70;;;7.00;99.90;;;;;;5038953;28;20041;-62
2023/03/17 00:11:13;;;;;;;4.63;3.30;;;6.90;99.90;;;;;;5037360;28;20113;-62
2023/03/17 00:13:40;;;;;;;5.45;3.65;;;6.90;99.90;;;;;;5055151;28;20037;-62
2023/03/17 00:16:13;;;;;;;4.97;3.72;;;6.90;99.90;;;;;;5054657;28;20044;-62
2023/03/17 00:18:38;;;;;;;5.28;3.17;;;6.80;99.90;;;;;;5051890;28;20032;-62
2023/03/17 00:21:04;;;;;;;4.68;3.38;;;6.80;99.90;;;;;;5054725;28;20047;-62
2023/03/17 00:23:30;;;;;;;4.38;3.60;;;6.90;99.90;;;;;;5055528;28;20041;-62
2023/03/17 00:25:56;;;;;;;7.00;3.65;;;6.90;99.90;;;;;;5051440;28;20028;-62
2023/03/17 00:28:26;;;;;;;5.47;3.45;;;6.90;99.90;;;;;;5036163;28;20051;-62
2023/03/17 00:30:58;;;;;;;5.38;3.50;;;6.90;99.90;;;;;;5054385;28;20060;-62
2023/03/17 00:33:26;;;;;;;5.43;3.60;;;6.90;99.90;;;;;;5050261;28;20041;-62
2023/03/17 00:35:54;;;;;;;5.75;3.53;;;6.80;99.90;;;;;;5050823;28;20514;-62
2023/03/17 00:38:21;;;;;;;6.63;4.00;;;6.90;99.90;;;;;;5049375;28;20383;-62
2023/03/17 00:40:47;;;;;;;6.47;3.83;;;6.90;99.90;;;;;;5031066;28;20484;-62
2023/03/17 00:43:13;;;;;;;5.32;3.58;;;6.90;99.90;;;;;;5048421;28;20049;-63
2023/03/17 00:45:40;;;;;;;5.72;3.80;;;6.90;99.90;;;;;;5030114;28;20376;-62
2023/03/17 00:48:17;;;;;;;6.32;3.70;;;6.90;99.90;;;;;;5028398;28;20458;-62
2023/03/17 00:50:44;;;;;;;5.45;3.63;;;6.90;99.90;;;;;;5045913;28;20060;-62
2023/03/17 00:53:12;;;;;;;4.75;3.28;;;6.80;99.90;;;;;;5048110;28;20099;-62
2023/03/17 00:55:39;;;;;;;4.72;3.60;;;6.80;99.90;;;;;;5051441;28;20955;-62
2023/03/17 00:58:14;;;;;;;5.50;3.50;;;6.80;99.90;;;;;;5050621;28;20036;-62
2023/03/17 01:00:39;;;;;;;5.93;3.90;;;6.80;99.90;;;;;;5049406;28;20033;-62
2023/03/17 01:03:10;;;;;;;5.07;3.45;;;6.80;99.90;;;;;;5034850;28;20124;-62
2023/03/17 01:05:37;;;;;;;5.45;3.47;;;6.80;99.90;;;;;;5051896;28;20029;-62
2023/03/17 01:08:03;;;;;;;5.18;3.65;;;6.80;99.90;;;;;;5032593;28;20041;-62
2023/03/17 01:10:29;;;;;;;6.57;3.63;;;6.80;99.90;;;;;;5052268;28;20098;-62
2023/03/17 01:12:57;;;;;;;4.10;3.58;;;6.80;99.90;;;;;;5046773;28;20037;-62
2023/03/17 01:15:24;;;;;;;5.32;4.22;;;6.80;99.90;;;;;;5051913;28;20067;-63
2023/03/17 01:17:51;;;;;;;6.18;3.75;;;6.80;99.90;;;;;;5051050;28;20087;-62
2023/03/17 01:20:23;;;;;;;5.72;4.13;;;6.80;99.90;;;;;;5050025;28;20127;-62
2023/03/17 01:22:50;;;;;;;4.97;3.67;;;6.80;99.90;;;;;;5051359;28;20425;-62
2023/03/17 01:25:16;;;;;;;7.30;4.00;;;6.80;99.90;;;;;;5049697;28;20029;-63
2023/03/17 01:27:43;;;;;;;6.63;3.67;;;6.80;99.90;;;;;;5046937;28;20041;-62
2023/03/17 01:30:27;;;;;;;7.03;3.85;;;6.80;99.90;;;;;;5051548;28;20083;-62
2023/03/17 01:32:54;;;;;;;5.80;3.47;;;6.80;99.90;;;;;;5046782;28;20079;-62
2023/03/17 01:35:20;;;;;;;6.80;3.45;;;6.70;99.90;;;;;;5043283;28;20045;-62
2023/03/17 01:37:46;;;;;;;4.20;3.50;;;6.80;99.90;;;;;;5025837;28;20041;-62
2023/03/17 01:40:16;;;;;;;5.70;3.42;;;6.80;99.90;;;;;;5030419;28;20061;-62
2023/03/17 01:42:46;;;;;;;4.53;3.35;;;6.80;99.90;;;;;;5041133;28;20128;-62
2023/03/17 01:45:50;;;;;;;5.65;3.85;;;6.80;99.90;;;;;;5025655;28;20037;-62
2023/03/17 01:48:16;;;;;;;4.93;3.63;;;6.80;99.90;;;;;;5039719;28;20045;-62
2023/03/17 01:50:44;;;;;;;5.10;3.40;;;6.80;99.90;;;;;;5042665;28;20423;-62
2023/03/17 01:53:10;;;;;;;5.22;3.80;;;6.80;99.90;;;;;;5042197;28;20033;-62
2023/03/17 01:55:39;;;;;;;6.78;4.07;;;6.80;99.90;;;;;;5042379;28;20036;-63
2023/03/17 01:58:05;;;;;;;7.32;4.10;;;6.80;99.90;;;;;;5045609;28;20143;-63
2023/03/17 02:00:32;;;;;;;5.82;3.95;;;6.80;99.90;;;;;;5046376;28;20041;-62
2023/03/17 02:02:58;;;;;;;5.45;4.00;;;6.70;99.90;;;;;;5030453;28;20127;-62
2023/03/17 02:05:27;;;;;;;7.43;4.32;;;6.70;99.90;;;;;;5049942;28;20029;-63
2023/03/17 02:07:54;;;;;;;5.63;4.47;;;6.70;99.90;;;;;;5051645;28;20037;-63
2023/03/17 02:10:21;;;;;;;6.15;4.30;;;6.70;99.90;;;;;;5052900;28;20106;-62
2023/03/17 02:12:51;;;;;;;5.88;4.28;;;6.70;99.90;;;;;;5033498;28;20449;-62
2023/03/17 02:15:16;;;;;;;6.40;3.80;;;6.70;99.90;;;;;;5047839;28;20083;-62
2023/03/17 02:17:42;;;;;;;5.95;3.90;;;6.70;99.90;;;;;;5051292;28;20041;-62
2023/03/17 02:20:28;;;;;;;7.07;4.22;;;6.70;99.90;;;;;;5049165;28;20068;-62
2023/03/17 02:22:56;;;;;;;4.85;4.15;;;6.70;99.90;;;;;;5012144;28;20057;-62
2023/03/17 02:25:23;;;;;;;5.68;4.00;;;6.70;99.90;;;;;;5049788;28;20094;-62
2023/03/17 02:27:54;;;;;;;7.80;4.05;;;6.70;99.90;;;;;;5031662;28;20049;-62
2023/03/17 02:30:22;;;;;;;6.43;4.05;;;6.70;99.90;;;;;;5029910;28;20071;-62
2023/03/17 02:32:48;;;;;;;6.28;4.30;;;6.60;99.90;;;;;;5048411;28;20124;-62
2023/03/17 02:35:14;;;;;;;5.63;3.97;;;6.60;99.90;;;;;;5050529;28;20064;-63
2023/03/17 02:37:42;;;;;;;5.53;3.83;;;6.60;99.90;;;;;;5050203;28;20068;-62
2023/03/17 02:40:10;;;;;;;6.38;4.35;;;6.60;99.90;;;;;;5031781;28;20044;-63
2023/03/17 02:42:38;;;;;;;7.32;4.95;;;6.60;99.90;;;;;;5032518;28;20526;-62
2023/03/17 02:45:08;;;;;;;7.72;4.55;;;6.60;99.90;;;;;;5051301;28;20544;-62
2023/03/17 02:47:34;;;;;;;5.45;4.10;;;6.60;99.90;;;;;;5047125;28;20029;-62
2023/03/17 02:50:00;;;;;;;7.38;5.22;;;6.60;99.90;;;;;;5048526;28;20436;-62
2023/03/17 02:52:25;;;;;;;6.60;4.40;;;6.60;99.90;;;;;;5032191;28;20033;-62
2023/03/17 02:54:51;;;;;;;4.97;4.13;;;6.60;99.90;;;;;;5047485;28;20204;-62
2023/03/17 02:57:17;;;;;;;6.72;4.70;;;6.60;99.90;;;;;;5040974;28;20033;-63
2023/03/17 02:59:43;;;;;;;6.25;4.50;;;6.50;99.90;;;;;;5046763;28;20037;-62
2023/03/17 03:02:09;;;;;;;6.93;4.20;;;6.50;99.90;;;;;;5045990;28;20033;-62
2023/03/17 03:04:34;;;;;;;6.20;4.72;;;6.40;99.90;;;;;;5049865;28;20102;-62
2023/03/17 03:07:00;;;;;;;6.80;4.68;;;6.40;99.90;;;;;;5048656;28;20120;-62
2023/03/17 03:09:26;;;;;;;5.47;4.50;;;6.30;99.90;;;;;;5042319;28;20039;-62
2023/03/17 03:11:52;;;;;;;5.85;4.32;;;6.30;99.90;;;;;;5026893;28;20458;-61
2023/03/17 03:14:17;;;;;;;7.35;4.50;;;6.30;99.90;;;;;;5041742;28;20599;-62
2023/03/17 03:16:43;;;;;;;6.88;4.72;;;6.20;99.90;;;;;;5049134;28;20418;-62
2023/03/17 03:19:09;;;;;;;7.13;4.55;;;6.20;99.90;;;;;;5049647;28;20035;-62
2023/03/17 03:21:36;;;;;;;6.93;4.63;;;6.20;99.90;;;;;;5031473;28;20045;-62
2023/03/17 03:24:01;;;;;;;9.88;4.80;;;6.20;99.90;;;;;;5049169;28;20037;-62
2023/03/17 03:26:27;;;;;;;6.55;4.57;;;6.30;99.90;;;;;;5028229;28;20150;-62
2023/03/17 03:28:53;;;;;;;5.85;4.35;;;6.30;99.90;;;;;;5049351;28;20644;-62
2023/03/17 03:31:19;;;;;;;8.13;4.82;;;6.30;99.90;;;;;;5048197;28;20037;-62
2023/03/17 03:33:45;;;;;;;6.47;4.47;;;6.30;99.90;;;;;;5050586;28;20116;-62
2023/03/17 03:36:12;;;;;;;5.78;4.57;;;6.20;99.90;;;;;;5049348;28;20171;-62
2023/03/17 03:38:37;;;;;;;10.00;4.78;;;6.20;99.90;;;;;;5020642;28;20041;-62
2023/03/17 03:41:03;;;;;;;6.68;4.65;;;6.20;99.90;;;;;;5031488;28;20048;-62
2023/03/17 03:43:28;;;;;;;6.03;4.25;;;6.20;99.90;;;;;;5049549;28;20065;-62
2023/03/17 03:45:54;;;;;;;5.28;4.22;;;6.10;99.90;;;;;;5050985;28;20033;-62
2023/03/17 03:48:20;;;;;;;6.68;4.45;;;6.20;99.90;;;;;;5042898;28;20125;-62
2023/03/17 03:50:46;;;;;;;7.88;4.70;;;6.20;99.90;;;;;;5046072;28;20040;-62
2023/03/17 03:53:12;;;;;;;6.88;4.65;;;6.20;99.90;;;;;;5030705;28;20052;-62
2023/03/17 03:55:38;;;;;;;7.13;3.92;;;6.20;99.90;;;;;;5048073;28;20072;-62
2023/03/17 03:58:04;;;;;;;5.60;4.43;;;6.20;99.90;;;;;;5048584;28;20061;-62
2023/03/17 04:00:30;;;;;;;6.47;4.32;;;6.20;99.90;;;;;;5048759;28;20033;-62
2023/03/17 04:02:56;;;;;;;6.65;4.53;;;6.10;99.90;;;;;;5048788;28;20573;-62
2023/03/17 04:05:21;;;;;;;6.18;4.75;;;6.10;99.90;;;;;;5048064;28;20124;-62
2023/03/17 04:07:47;;;;;;;8.02;4.53;;;6.10;99.90;;;;;;5032453;28;20068;-62
2023/03/17 04:10:14;;;;;;;5.88;4.40;;;6.10;99.90;;;;;;5048723;28;20080;-62
2023/03/17 04:12:40;;;;;;;6.65;4.35;;;6.10;99.90;;;;;;5051223;28;20051;-62
2023/03/17 04:15:08;;;;;;;7.57;4.50;;;6.10;99.90;;;;;;5053724;28;20037;-62
2023/03/17 04:17:34;;;;;;;5.63;4.82;;;6.10;99.90;;;;;;5034048;28;20537;-62
2023/03/17 04:19:59;;;;;;;6.43;4.38;;;6.10;99.90;;;;;;5035455;28;20049;-62
2023/03/17 04:22:26;;;;;;;11.50;4.72;;;6.10;99.90;;;;;;5051981;28;20044;-62
2023/03/17 04:24:51;;;;;;;5.50;4.40;;;6.10;99.90;;;;;;5036334;28;20059;-62
2023/03/17 04:27:17;;;;;;;5.88;4.45;;;6.00;99.90;;;;;;5053223;28;20043;-62
2023/03/17 04:29:43;;;;;;;6.13;4.38;;;6.00;99.90;;;;;;5043504;28;20160;-62
2023/03/17 04:32:12;;;;;;;10.27;4.32;;;6.00;99.90;;;;;;5030256;28;20155;-62
2023/03/17 04:34:38;;;;;;;4.70;4.10;;;6.10;99.90;;;;;;5014214;28;20041;-62
2023/03/17 04:37:04;;;;;;;7.15;4.70;;;6.00;99.90;;;;;;5038092;28;20037;-62
2023/03/17 04:39:29;;;;;;;7.18;4.93;;;6.00;99.90;;;;;;5043305;28;20039;-62
2023/03/17 04:41:55;;;;;;;6.05;4.32;;;6.00;99.90;;;;;;5052720;28;20429;-62
2023/03/17 04:44:20;;;;;;;5.15;4.30;;;6.00;99.90;;;;;;5032388;28;20033;-62
2023/03/17 04:46:46;;;;;;;7.05;4.25;;;6.00;99.90;;;;;;5050088;28;20064;-62
2023/03/17 04:49:12;;;;;;;7.68;4.65;;;6.00;99.90;;;;;;5051601;28;20037;-62
2023/03/17 04:51:37;;;;;;;7.35;4.35;;;6.00;99.90;;;;;;5026938;28;20025;-61
2023/03/17 04:54:03;;;;;;;7.93;4.82;;;6.00;99.90;;;;;;5033832;28;20067;-62
2023/03/17 04:56:29;;;;;;;7.57;4.32;;;6.00;99.90;;;;;;5062295;22;20041;-64
2023/03/17 04:58:54;;;;;;;7.07;4.70;;;6.00;99.90;;;;;;5051457;28;20037;-64
2023/03/17 05:01:20;;;;;;;7.43;4.35;;;6.00;99.90;;;;;;5046045;28;20036;-64
2023/03/17 05:03:46;;;;;;;6.75;4.28;;;6.00;99.90;;;;;;5047298;28;20045;-64
2023/03/17 05:06:12;;;;;;;5.95;3.90;;;6.00;99.90;;;;;;5045838;28;20075;-63
2023/03/17 05:08:38;;;;;;;5.68;4.10;;;6.10;99.90;;;;;;5041802;28;20032;-64
2023/03/17 05:11:04;;;;;;;5.75;4.22;;;6.10;99.90;;;;;;5040793;28;20029;-63
2023/03/17 05:13:29;;;;;;;6.10;4.50;;;6.00;99.90;;;;;;5050207;28;20036;-64
2023/03/17 05:15:56;;;;;;;6.85;4.90;;;6.00;99.90;;;;;;5044073;28;20029;-64
2023/03/17 05:18:24;;;;;;;6.22;4.80;;;6.00;99.90;;;;;;5043966;28;20044;-64
2023/03/17 05:20:49;;;;;;;8.38;4.75;;;6.00;99.90;;;;;;5048343;28;20047;-64
2023/03/17 05:23:15;;;;;;;6.53;4.25;;;6.00;99.90;;;;;;5044359;28;20047;-64
2023/03/17 05:25:41;;;;;;;6.03;4.47;;;6.00;99.90;;;;;;5047610;28;20133;-64
2023/03/17 05:28:07;;;;;;;5.03;3.80;;;6.00;99.90;;;;;;5042098;28;20112;-64
2023/03/17 05:30:35;;;;;;;5.82;4.25;;;6.10;99.90;;;;;;5043898;28;20060;-64
2023/03/17 05:33:01;;;;;;;5.38;4.00;;;6.10;99.90;;;;;;5048025;28;20080;-64
2023/03/17 05:35:26;;;;;;;6.13;4.07;;;6.10;99.90;;;;;;5051328;28;20102;-64
2023/03/17 05:37:52;;;;;;;6.07;4.28;;;6.10;99.90;;;;;;5048141;28;20041;-64
2023/03/17 05:40:18;;;;;;;5.15;4.05;;;6.10;99.90;;;;;;5028093;28;20979;-64
2023/03/17 05:42:43;;;;;;;6.43;4.07;;;6.10;99.90;;;;;;5041929;28;20080;-63
2023/03/17 05:45:09;;;;;;;5.93;3.92;;;6.20;99.90;;;;;;5042741;28;20043;-64
2023/03/17 05:47:35;;;;;;;5.90;3.47;;;6.20;99.90;;;;;;5040388;28;20749;-64
2023/03/17 05:50:01;;;;;;;3.95;3.13;;;6.20;99.90;;;;;;5047157;28;20037;-63
2023/03/17 05:52:27;;;;;;;5.45;3.72;;;6.20;99.90;;;;;;5043429;28;20042;-64
2023/03/17 05:54:53;;;;;;;8.45;3.60;;;6.30;99.90;;;;;;5041004;28;20261;-63
2023/03/17 05:57:20;;;;;;;5.50;3.40;;;6.40;99.90;;;;;;5044502;28;20433;-64
2023/03/17 05:59:47;;;;;;;4.93;3.50;;;6.40;99.90;;;;;;5050107;28;20041;-64
2023/03/17 06:02:13;;;;;;;4.25;3.42;;;6.50;99.90;;;;;;5027872;28;20537;-63
2023/03/17 06:04:39;;;;;;;4.88;3.55;;;6.50;99.90;;;;;;5053017;28;20398;-63
2023/03/17 06:07:05;;;;;;;4.72;3.35;;;6.50;99.90;;;;;;5035851;28;20100;-63
2023/03/17 06:09:32;;;;;;;7.40;3.35;;;6.60;99.90;;;;;;5061683;28;20513;-63
2023/03/17 06:12:01;;;;;;;5.40;3.42;;;6.60;99.90;;;;;;5052208;28;20051;-64
2023/03/17 06:14:27;;;;;;;6.53;3.47;;;6.60;99.90;;;;;;5049391;28;20069;-63
2023/03/17 06:16:52;;;;;;;9.88;3.38;;;6.70;99.90;;;;;;5042373;28;20076;-64
2023/03/17 06:19:18;;;;;;;5.95;3.55;;;6.70;99.90;;;;;;5047865;28;20492;-63
2023/03/17 06:21:43;;;;;;;5.95;3.13;;;6.80;99.90;;;;;;5048412;28;20045;-64
2023/03/17 06:24:09;;;;;;;5.45;3.10;;;6.90;99.90;;;;;;5050391;28;20499;-63
2023/03/17 06:26:36;;;;;;;4.85;3.45;;;7.00;99.90;;;;;;5040967;28;20029;-63
2023/03/17 06:29:02;;;;;;;6.30;3.38;;;7.00;99.90;;;;;;5024009;28;20041;-63
2023/03/17 06:31:28;;;;;;;5.93;3.25;;;7.10;99.90;;;;;;5026027;28;20045;-63
2023/03/17 06:33:54;;;;;;;4.55;3.08;;;7.20;99.90;;;;;;5040172;28;20490;-64
2023/03/17 06:36:20;;;;;;;7.07;3.53;;;7.30;99.90;;;;;;5041391;28;20029;-63
2023/03/17 06:38:46;;;;;;;6.80;3.00;;;7.40;99.90;;;;;;5040842;28;20049;-64
2023/03/17 06:41:11;;;;;;;4.45;3.03;;;7.50;99.90;;;;;;5042005;28;20056;-64
2023/03/17 06:43:37;;;;;;;5.30;3.20;;;7.60;99.90;;;;;;5040141;28;20041;-64
2023/03/17 06:46:03;;;;;;;4.60;3.13;;;7.70;99.90;;;;;;5043983;28;20049;-63
2023/03/17 06:48:28;;;;;;;6.35;3.17;;;7.80;99.90;;;;;;5041306;28;20044;-64
2023/03/17 06:50:54;;;;;;;5.50;3.20;;;7.90;99.90;;;;;;5047685;28;20445;-64
2023/03/17 06:53:20;;;;;;;4.95;3.50;;;8.10;99.90;;;;;;5032175;28;20456;-64
2023/03/17 06:55:46;;;;;;;7.90;3.40;;;8.10;99.90;;;;;;5049273;28;20465;-64
2023/03/17 06:58:14;;;;;;;5.80;3.75;;;8.20;99.90;;;;;;5047104;28;20167;-63
2023/03/17 07:00:40;;;;;;;5.43;3.20;;;8.30;99.90;;;;;;5054776;28;20062;-63
2023/03/17 07:03:06;;;;;;;5.85;3.30;;;8.40;99.90;;;;;;5052643;28;20131;-64
2023/03/17 07:05:32;;;;;;;4.70;3.15;;;8.40;99.90;;;;;;5046796;28;20106;-64
2023/03/17 07:07:58;;;;;;;4.00;3.15;;;8.40;99.90;;;;;;5047273;28;20195;-64
2023/03/17 07:10:24;;;;;;;6.97;3.22;;;8.40;99.90;;;;;;5052148;28;20245;-64
2023/03/17 07:12:49;;;;;;;3.78;3.00;;;8.50;99.90;;;;;;5030312;28;20406;-64
2023/03/17 07:15:16;;;;;;;6.75;3.47;;;8.50;99.90;;;;;;5054312;28;20041;-64
2023/03/17 07:17:42;;;;;;;4.03;3.10;;;8.60;99.90;;;;;;5029050;28;20052;-64
2023/03/17 07:20:09;;;;;;;5.55;3.22;;;8.60;99.90;;;;;;5033326;28;20060;-63
2023/03/17 07:22:35;;;;;;;4.57;3.10;;;8.60;99.90;;;;;;5033608;28;20045;-63
2023/03/17 07:25:00;;;;;;;3.65;3.05;;;8.60;99.90;;;;;;5049020;28;20086;-63
2023/03/17 07:27:26;;;;;;;5.57;3.22;;;8.70;99.90;;;;;;5032214;28;20037;-63
2023/03/17 07:29:52;;;;;;;4.47;3.00;;;8.70;99.90;;;;;;5039301;28;20034;-63
2023/03/17 07:32:18;;;;;;;4.70;3.28;;;8.70;99.90;;;;;;5040611;28;20548;-63
2023/03/17 07:34:43;;;;;;;5.13;3.13;;;8.80;99.90;;;;;;5044128;28;20475;-63
2023/03/17 07:37:09;;;;;;;6.13;3.38;;;8.80;99.90;;;;;;5049124;28;20033;-63
2023/03/17 07:39:35;;;;;;;4.85;3.28;;;8.90;99.90;;;;;;5047279;28;20056;-64
2023/03/17 07:42:01;;;;;;;7.10;3.20;;;8.90;99.90;;;;;;5043220;28;20645;-63
2023/03/17 07:44:27;;;;;;;9.27;3.42;;;9.00;99.90;;;;;;5045486;28;20036;-63
2023/03/17 07:46:53;;;;;;;6.90;3.30;;;9.10;99.90;;;;;;5046181;28;20394;-63
2023/03/17 07:49:20;;;;;;;6.32;3.22;;;9.10;99.90;;;;;;5048325;28;20036;-63
2023/03/17 07:51:45;;;;;;;5.63;3.38;;;9.20;99.90;;;;;;5034651;28;20037;-62
2023/03/17 07:54:12;;;;;;;6.82;3.53;;;9.30;99.90;;;;;;5047719;28;20048;-63
2023/03/17 07:56:38;;;;;;;5.22;3.17;;;9.30;99.90;;;;;;5045450;28;20037;-63
2023/03/17 07:59:07;;;;;;;5.57;3.40;;;9.40;99.90;;;;;;5032559;28;20101;-63
2023/03/17 08:01:33;;;;;;;7.05;3.30;;;9.50;99.90;;;;;;5052407;28;20036;-63
2023/03/17 08:03:59;;;;;;;3.58;2.78;;;9.50;99.90;;;;;;5061036;28;20540;-63
2023/03/17 08:06:25;;;;;;;5.40;3.45;;;9.60;99.90;;;;;;5069368;28;20406;-63
2023/03/17 08:08:52;;;;;;;6.85;3.30;;;9.60;99.90;;;;;;5053665;28;20040;-63
2023/03/17 08:11:17;;;;;;;7.22;3.15;;;9.60;99.90;;;;;;5050535;28;20048;-63
2023/03/17 08:13:43;;;;;;;3.63;3.10;;;9.60;99.90;;;;;;5049543;28;20045;-63
2023/03/17 08:16:09;;;;;;;4.28;3.28;;;9.70;99.90;;;;;;5055207;28;20453;-63
2023/03/17 08:18:35;;;;;;;6.18;3.42;;;9.80;99.90;;;;;;5060134;28;20048;-63
2023/03/17 08:21:01;;;;;;;5.40;3.33;;;9.90;99.90;;;;;;5050122;28;20071;-63
2023/03/17 08:23:26;;;;;;;7.70;3.83;;;10.00;99.90;;;;;;5054153;28;20037;-63
2023/03/17 08:26:00;;;;;;;4.68;3.55;;;10.10;99.90;;;;;;5051757;28;20048;-63
2023/03/17 08:28:26;;;;;;;5.57;3.28;;;10.10;99.90;;;;;;5051594;28;20036;-63
2023/03/17 08:30:53;;;;;;;4.90;3.47;;;10.10;99.90;;;;;;5047450;28;20033;-63
2023/03/17 08:33:19;;;;;;;4.40;3.28;;;10.20;99.90;;;;;;5049349;28;20087;-63
2023/03/17 08:35:45;;;;;;;5.70;3.47;;;10.20;99.90;;;;;;5050980;28;20040;-63
2023/03/17 08:38:11;;;;;;;6.18;3.45;;;10.20;99.90;;;;;;5054366;28;20076;-63
2023/03/17 08:40:38;;;;;;;5.60;3.70;;;10.30;99.90;;;;;;5057040;28;20040;-63
2023/03/17 08:43:07;;;;;;;7.88;3.58;;;10.40;99.90;;;;;;5064999;28;20044;-63
2023/03/17 08:45:32;;;;;;;5.97;3.35;;;10.40;99.90;;;;;;5048187;28;20084;-63
2023/03/17 08:47:58;;;;;;;5.97;3.92;;;10.40;99.90;;;;;;5025379;28;20391;-63
2023/03/17 08:50:24;;;;;;;6.53;3.75;;;10.50;99.90;;;;;;5051213;28;20118;-63
2023/03/17 08:52:50;;;;;;;6.65;3.75;;;10.50;99.90;;;;;;5052271;28;20041;-63
2023/03/17 08:55:17;;;;;;;4.88;3.10;;;10.50;99.90;;;;;;5039662;28;20053;-63
2023/03/17 08:57:43;;;;;;;6.28;4.00;;;10.50;99.90;;;;;;5033216;28;20407;-63
2023/03/17 09:00:13;;;;;;;7.40;3.40;;;10.60;99.90;;;;;;5044975;28;20099;-63
2023/03/17 09:02:41;;;;;;;7.13;3.60;;;10.70;99.90;;;;;;5051408;28;20558;-63
2023/03/17 09:05:10;;;;;;;4.15;3.03;;;10.70;99.90;;;;;;5050920;28;20041;-63
2023/03/17 09:07:36;;;;;;;7.25;3.80;;;10.80;99.90;;;;;;5042989;28;20048;-63
2023/03/17 09:10:02;;;;;;;7.50;3.72;;;10.90;99.90;;;;;;5047082;28;20041;-63
2023/03/17 09:12:28;;;;;;;5.25;3.65;;;10.90;99.90;;;;;;5047363;28;20136;-63
2023/03/17 09:14:55;;;;;;;6.50;3.55;;;11.00;99.90;;;;;;5046983;28;20338;-63
2023/03/17 09:17:21;;;;;;;6.13;3.78;;;11.00;99.90;;;;;;5047930;28;20029;-63
2023/03/17 09:19:47;;;;;;;6.13;3.85;;;11.10;99.90;;;;;;5048158;28;20083;-64
2023/03/17 09:22:15;;;;;;;5.90;3.67;;;11.20;99.90;;;;;;5060206;28;20037;-64
2023/03/17 09:24:41;;;;;;;6.70;3.75;;;11.30;99.90;;;;;;5066480;28;20458;-63
2023/03/17 09:27:06;;;;;;;5.03;3.42;;;11.40;99.90;;;;;;5053284;28;20139;-64
2023/03/17 09:29:32;;;;;;;7.75;3.72;;;11.50;99.90;;;;;;5032051;28;20394;-64
2023/03/17 09:31:59;;;;;;;5.45;3.63;;;11.60;99.90;;;;;;5059347;28;20117;-63
2023/03/17 09:34:25;;;;;;;8.30;4.07;;;11.80;99.90;;;;;;5051366;28;20045;-64
2023/03/17 09:36:53;;;;;;;6.85;3.92;;;11.90;99.90;;;;;;5032577;28;20363;-63
2023/03/17 09:39:21;;;;;;;9.85;4.32;;;12.10;99.90;;;;;;5047924;28;20033;-64
2023/03/17 09:42:05;;;;;;;6.38;4.13;;;12.20;99.90;;;;;;5045102;28;20040;-64
2023/03/17 09:44:46;;;;;;;8.52;4.00;;;12.20;99.90;;;;;;5051603;28;20045;-64
2023/03/17 09:47:30;;;;;;;7.43;3.97;;;12.30;99.90;;;;;;5049350;28;20171;-64
2023/03/17 09:50:03;;;;;;;6.28;4.20;;;12.30;99.90;;;;;;5052077;28;20494;-64
2023/03/17 09:52:35;;;;;;;7.70;4.40;;;12.40;99.90;;;;;;5033785;28;20041;-64
2023/03/17 09:55:04;;;;;;;6.93;3.65;;;12.40;99.90;;;;;;5051413;28;20037;-64
2023/03/17 09:57:38;;;;;;;7.50;4.15;;;12.40;99.90;;;;;;5054925;28;20116;-64
2023/03/17 10:00:13;;;;;;;5.10;3.80;;;12.40;99.90;;;;;;5050486;28;20540;-64
2023/03/17 10:02:39;;;;;;;6.55;4.95;;;12.50;99.90;;;;;;5050749;28;20037;-63
2023/03/17 10:05:20;;;;;;;6.50;4.60;;;12.50;99.90;;;;;;5047402;28;20041;-64
2023/03/17 10:08:11;;;;;;;8.32;4.00;;;12.70;99.90;;;;;;5030663;28;20091;-63
2023/03/17 10:10:48;;;;;;;7.88;4.78;;;12.80;99.90;;;;;;5037881;28;20041;-64
2023/03/17 10:13:44;;;;;;;9.95;4.70;;;12.90;99.90;;;;;;5047141;28;20044;-64
2023/03/17 10:16:18;;;;;;;6.88;4.57;;;13.10;99.90;;;;;;5045429;28;20124;-64
2023/03/17 10:18:57;;;;;;;11.88;5.00;;;13.20;99.90;;;;;;5044355;28;20037;-64
2023/03/17 10:21:30;;;;;;;9.43;5.35;;;13.40;99.90;;;;;;5041739;28;20037;-64
2023/03/17 10:23:56;;;;;;;7.22;4.68;;;13.50;99.90;;;;;;5047894;28;20045;-64
2023/03/17 10:26:41;;;;;;;10.13;4.50;;;13.60;99.90;;;;;;5052582;28;20032;-64
2023/03/17 10:29:14;;;;;;;8.85;4.47;;;13.70;99.90;;;;;;5060387;28;20037;-64
2023/03/17 10:31:40;;;;;;;7.72;5.15;;;13.80;99.90;;;;;;5048774;28;20028;-64
2023/03/17 10:34:17;;;;;;;7.88;5.15;;;13.80;99.90;;;;;;5049117;28;20234;-64
2023/03/17 10:36:50;;;;;;;9.55;4.90;;;13.90;99.90;;;;;;5042926;28;20079;-64
2023/03/17 10:39:22;;;;;;;8.57;4.28;;;14.00;99.90;;;;;;5040667;28;20085;-65
2023/03/17 10:41:58;;;;;;;7.32;4.53;;;14.10;99.90;;;;;;5047545;28;20528;-64
2023/03/17 10:44:43;;;;;;;7.18;4.55;;;14.20;99.90;;;;;;5038140;28;20766;-64
2023/03/17 10:47:39;;;;;;;11.02;5.72;;;14.30;99.90;;;;;;5034142;28;20041;-64
2023/03/17 10:50:22;;;;;;;8.57;4.60;;;14.30;99.90;;;;;;5027495;28;20060;-64
2023/03/17 10:53:09;;;;;;;7.95;4.65;;;14.30;99.90;;;;;;5049629;28;20045;-63
2023/03/17 10:55:41;;;;;;;9.35;4.47;;;14.30;99.90;;;;;;5049635;28;20041;-64
2023/03/17 10:58:14;;;;;;;8.82;4.57;;;14.30;99.90;;;;;;5064287;22;20049;-62
2023/03/17 11:00:54;;;;;;;7.28;4.72;;;14.20;99.90;;;;;;5028579;28;20084;-62
2023/03/17 11:03:28;;;;;;;8.10;4.90;;;14.30;99.90;;;;;;5031591;28;20441;-63
2023/03/17 11:06:00;;;;;;;6.90;4.80;;;14.30;99.90;;;;;;5050606;28;20159;-63
2023/03/17 11:08:50;;;;;;;7.97;4.70;;;14.40;99.90;;;;;;5052641;28;20033;-63
2023/03/17 11:11:32;;;;;;;8.15;4.55;;;14.50;99.90;;;;;;5050918;28;20090;-63
2023/03/17 11:14:10;;;;;;;8.55;4.80;;;14.60;99.70;;;;;;5033354;28;20056;-63
2023/03/17 11:16:39;;;;;;;10.32;5.25;;;14.70;99.90;;;;;;5025348;28;20064;-63
2023/03/17 11:19:11;;;;;;;8.13;5.32;;;14.80;99.90;;;;;;5046168;28;20087;-63
2023/03/17 11:21:53;;;;;;;8.52;5.05;;;14.90;99.90;;;;;;5043542;28;20037;-63
2023/03/17 11:24:29;;;;;;;8.60;5.20;;;15.00;99.90;;;;;;5050640;28;20437;-63
2023/03/17 11:27:23;;;;;;;9.10;5.25;;;15.00;99.90;;;;;;5047532;28;20111;-63
2023/03/17 11:30:04;;;;;;;9.27;5.00;;;15.10;99.70;;;;;;5042113;28;20075;-63
2023/03/17 11:32:36;;;;;;;;;;;15.20;99.90;;;;;;5049630;28;20039;-63
2023/03/17 11:35:25;;;;;;;7.57;4.93;;;15.20;99.20;;;;;;5045218;28;19960;-63
2023/03/17 11:38:09;;;;;;;7.05;4.57;;;15.30;99.80;;;;;;5044635;28;20044;-63
2023/03/17 11:40:42;;;;;;;10.00;4.97;;;15.40;97.40;;;;;;5045160;28;20068;-63
2023/03/17 11:43:36;;;;;;;11.50;5.45;;;15.50;95.80;;;;;;5049191;28;20052;-63
2023/03/17 11:46:27;;;;;;;9.18;5.28;;;15.60;95.00;;;;;;5051111;28;20522;-63
2023/03/17 11:48:57;;;;;;;9.88;5.15;;;15.60;95.20;;;;;;5047583;28;20040;-63
2023/03/17 11:51:36;;;;;;;8.75;5.03;;;15.50;94.20;;;;;;5047050;28;20041;-63
2023/03/17 11:54:13;;;;;;;10.00;5.18;;;15.40;94.30;;;;;;5047862;28;20044;-62
2023/03/17 11:56:54;;;;;;;9.25;4.45;;;15.40;93.80;;;;;;5043409;28;20049;-64
2023/03/17 11:59:32;;;;;;;8.68;4.50;;;15.30;92.30;;;;;;5047508;28;20037;-62
2023/03/17 12:02:24;;;;;;;7.72;4.57;;;15.30;92.20;;;;;;5047400;28;20095;-63
2023/03/17 12:05:05;;;;;;;8.57;5.07;;;15.20;91.80;;;;;;5035834;28;20037;-63
2023/03/17 12:07:44;;;;;;;10.32;5.00;;;15.10;93.00;;;;;;5045424;28;20039;-63
2023/03/17 12:10:22;;;;;;;9.38;5.00;;;15.10;93.70;;;;;;5049843;28;20124;-63
2023/03/17 12:13:11;;;;;;;14.35;5.07;;;15.10;94.80;;;;;;5030318;28;20041;-63
2023/03/17 12:15:42;;;;;;;10.25;5.60;;;15.20;95.60;;;;;;5048988;28;20121;-63
2023/03/17 12:18:16;;;;;;;7.70;4.70;;;15.20;96.60;;;;;;5046456;28;20120;-65
2023/03/17 12:21:00;;;;;;;9.15;5.13;;;15.30;96.30;;;;;;5046583;28;20073;-64
2023/03/17 12:23:39;;;;;;;7.07;4.88;;;15.30;96.00;;;;;;5030832;28;20048;-64
2023/03/17 12:26:11;;;;;;;9.40;5.50;;;15.30;96.10;;;;;;5046460;28;20040;-64
2023/03/17 12:29:08;;;;;;;7.97;4.95;;;15.30;95.60;;;;;;5035180;28;20041;-64
2023/03/17 12:31:36;;;;;;;13.25;5.65;;;15.30;96.10;;;;;;5040652;28;20035;-62
2023/03/17 12:34:19;;;;;;;8.93;4.97;;;15.30;96.20;;;;;;5048262;28;20383;-62
2023/03/17 12:36:46;;;;;;;7.72;4.88;;;15.20;96.90;;;;;;5052329;28;20083;-62
2023/03/17 12:39:35;;;;;;;9.80;5.10;;;15.20;95.80;;;;;;5051125;28;20041;-63
2023/03/17 12:42:29;;;;;;;10.60;5.20;;;15.20;95.00;;;;;;5050111;28;20037;-63
2023/03/17 12:45:15;;;;;;;7.55;4.85;;;15.10;95.70;;;;;;5051247;28;20586;-63
2023/03/17 12:48:16;;;;;;;6.93;4.75;;;15.10;96.40;;;;;;5042466;28;20029;-63
2023/03/17 12:51:10;;;;;;;9.02;5.07;;;15.10;96.60;;;;;;5033449;28;20546;-63
2023/03/17 12:53:39;;;;;;;8.48;5.30;;;15.10;96.90;;;;;;5046608;28;20045;-63
2023/03/17 12:56:20;;;;;;;7.85;5.10;;;15.10;97.40;;;;;;5049419;28;20434;-63
2023/03/17 12:58:51;;;;;;;8.73;5.00;;;15.10;97.30;;;;;;5030652;28;20479;-63
2023/03/17 13:01:23;;;;;;;8.27;5.35;;;15.10;98.20;;;;;;5049708;28;20088;-64
2023/03/17 13:04:16;;;;;;;9.30;5.50;;;15.20;98.10;;;;;;5051608;28;20041;-64
2023/03/17 13:06:53;;;;;;;7.38;5.22;;;15.30;98.50;;;;;;5050385;28;20109;-63